sensor_id;sensor_type;location;lat;lon;timestamp;temperature;humidity
9564;DHT22;4820;50.870;4.702;2023-02-10T00:01:25;4.90;99.90
9564;DHT22;4820;50.870;4.702;2023-02-10T00:03:52;4.90;99.90
9564;DHT22;4820;50.870;4.702;2023-02-10T00:06:19;4.80;99.90
9564;DHT22;4820;50.870;4.702;2023-02-10T00:08:54;4.70;99.90
9564;DHT22;4820;50.870;4.702;2023-02-10T00:11:20;4.70;99.90
9564;DHT22;4820;50.870;4.702;2023-02-10T00:14:07;4.60;99.90
9564;DHT22;4820;50.870;4.702;2023-02-10T00:16:34;4.60;99.90
9564;DHT22;4820;50.870;4.702;2023-02-10T00:18:59;4.50;99.90
9564;DHT22;4820;50.870;4.702;2023-02-10T00:21:25;4.40;99.90
9564;DHT22;4820;50.870;4.702;2023-02-10T00:23:52;4.40;99.90
9564;DHT22;4820;50.870;4.702;2023-02-10T00:26:19;4.40;99.90
9564;DHT22;4820;50.870;4.702;2023-02-10T00:28:45;4.40;99.90
9564;DHT22;4820;50.870;4.702;2023-02-10T00:31:13;4.40;99.90
9564;DHT22;4820;50.870;4.702;2023-02-10T00:33:39;4.40;99.90
9564;DHT22;4820;50.870;4.702;2023-02-10T00:36:09;4.40;99.90
9564;DHT22;4820;50.870;4.702;2023-02-10T00:38:35;4.40;99.90
9564;DHT22;4820;50.870;4.702;2023-02-10T00:41:21;4.50;99.90
9564;DHT22;4820;50.870;4.702;2023-02-10T00:43:47;4.60;99.90
9564;DHT22;4820;50.870;4.702;2023-02-10T00:46:15;4.60;99.90
9564;DHT22;4820;50.870;4.702;2023-02-10T00:48:40;4.70;99.90
9564;DHT22;4820;50.870;4.702;2023-02-10T00:51:06;4.70;99.90
9564;DHT22;4820;50.870;4.702;2023-02-10T00:53:33;4.70;99.90
9564;DHT22;4820;50.870;4.702;2023-02-10T00:55:59;4.70;99.90
9564;DHT22;4820;50.870;4.702;2023-02-10T00:58:25;4.70;99.90
9564;DHT22;4820;50.870;4.702;2023-02-10T01:00:54;4.80;99.90
9564;DHT22;4820;50.870;4.702;2023-02-10T01:03:24;4.80;99.90
9564;DHT22;4820;50.870;4.702;2023-02-10T01:05:50;4.80;99.90
9564;DHT22;4820;50.870;4.702;2023-02-10T01:08:17;4.80;99.90
9564;DHT22;4820;50.870;4.702;2023-02-10T01:10:43;4.80;99.90
9564;DHT22;4820;50.870;4.702;2023-02-10T01:13:11;4.80;99.90
9564;DHT22;4820;50.870;4.702;2023-02-10T01:15:42;4.80;99.90
9564;DHT22;4820;50.870;4.702;2023-02-10T01:18:09;4.80;99.90
9564;DHT22;4820;50.870;4.702;2023-02-10T01:20:38;4.80;99.90
9564;DHT22;4820;50.870;4.702;2023-02-10T01:23:05;4.80;99.90
9564;DHT22;4820;50.870;4.702;2023-02-10T01:25:32;4.80;99.90
9564;DHT22;4820;50.870;4.702;2023-02-10T01:27:59;4.70;99.90
9564;DHT22;4820;50.870;4.702;2023-02-10T01:30:26;4.80;99.90
9564;DHT22;4820;50.870;4.702;2023-02-10T01:32:55;4.80;99.90
9564;DHT22;4820;50.870;4.702;2023-02-10T01:35:21;4.90;99.90
9564;DHT22;4820;50.870;4.702;2023-02-10T01:37:47;4.90;99.90
9564;DHT22;4820;50.870;4.702;2023-02-10T01:40:13;5.00;99.90
9564;DHT22;4820;50.870;4.702;2023-02-10T01:42:39;4.90;99.90
9564;DHT22;4820;50.870;4.702;2023-02-10T01:45:40;4.90;99.90
9564;DHT22;4820;50.870;4.702;2023-02-10T01:48:08;4.90;99.90
9564;DHT22;4820;50.870;4.702;2023-02-10T01:50:45;4.80;99.90
9564;DHT22;4820;50.870;4.702;2023-02-10T01:53:13;4.80;99.90
9564;DHT22;4820;50.870;4.702;2023-02-10T01:55:42;4.70;99.90
9564;DHT22;4820;50.870;4.702;2023-02-10T01:58:11;4.70;99.90
9564;DHT22;4820;50.870;4.702;2023-02-10T02:00:38;4.60;99.90
9564;DHT22;4820;50.870;4.702;2023-02-10T02:03:05;4.60;99.90
9564;DHT22;4820;50.870;4.702;2023-02-10T02:05:39;4.60;99.90
9564;DHT22;4820;50.870;4.702;2023-02-10T02:08:24;4.60;99.90
9564;DHT22;4820;50.870;4.702;2023-02-10T02:19:46;4.40;99.90
9564;DHT22;4820;50.870;4.702;2023-02-10T02:33:19;4.30;99.90
9564;DHT22;4820;50.870;4.702;2023-02-10T02:36:10;4.30;99.90
9564;DHT22;4820;50.870;4.702;2023-02-10T02:38:41;4.30;99.90
9564;DHT22;4820;50.870;4.702;2023-02-10T02:41:08;4.30;99.90
9564;DHT22;4820;50.870;4.702;2023-02-10T02:43:34;4.30;99.90
9564;DHT22;4820;50.870;4.702;2023-02-10T02:46:15;4.20;99.90
9564;DHT22;4820;50.870;4.702;2023-02-10T02:49:13;4.20;99.90
9564;DHT22;4820;50.870;4.702;2023-02-10T02:52:02;4.20;99.90
9564;DHT22;4820;50.870;4.702;2023-02-10T02:55:16;4.00;99.90
9564;DHT22;4820;50.870;4.702;2023-02-10T02:58:08;3.90;99.90
9564;DHT22;4820;50.870;4.702;2023-02-10T03:00:37;3.80;99.90
9564;DHT22;4820;50.870;4.702;2023-02-10T03:03:04;3.70;99.90
9564;DHT22;4820;50.870;4.702;2023-02-10T03:05:31;3.60;99.90
9564;DHT22;4820;50.870;4.702;2023-02-10T03:07:57;3.50;99.90
9564;DHT22;4820;50.870;4.702;2023-02-10T03:10:23;3.50;99.90
9564;DHT22;4820;50.870;4.702;2023-02-10T03:12:49;3.50;99.90
9564;DHT22;4820;50.870;4.702;2023-02-10T03:15:16;3.60;99.90
9564;DHT22;4820;50.870;4.702;2023-02-10T03:17:42;3.60;99.90
9564;DHT22;4820;50.870;4.702;2023-02-10T03:20:08;3.60;99.90
9564;DHT22;4820;50.870;4.702;2023-02-10T03:22:34;3.60;99.90
9564;DHT22;4820;50.870;4.702;2023-02-10T03:25:00;3.60;99.90
9564;DHT22;4820;50.870;4.702;2023-02-10T03:27:25;3.60;99.90
9564;DHT22;4820;50.870;4.702;2023-02-10T03:29:51;3.60;99.90
9564;DHT22;4820;50.870;4.702;2023-02-10T03:32:18;3.60;99.90
9564;DHT22;4820;50.870;4.702;2023-02-10T03:34:45;3.60;99.90
9564;DHT22;4820;50.870;4.702;2023-02-10T03:37:11;3.60;99.90
9564;DHT22;4820;50.870;4.702;2023-02-10T03:39:38;3.60;99.90
9564;DHT22;4820;50.870;4.702;2023-02-10T03:42:06;3.60;99.90
9564;DHT22;4820;50.870;4.702;2023-02-10T03:44:33;3.50;99.90
9564;DHT22;4820;50.870;4.702;2023-02-10T03:47:00;3.40;99.90
9564;DHT22;4820;50.870;4.702;2023-02-10T03:49:25;3.40;99.90
9564;DHT22;4820;50.870;4.702;2023-02-10T03:51:51;3.30;99.90
9564;DHT22;4820;50.870;4.702;2023-02-10T03:54:17;3.20;99.90
9564;DHT22;4820;50.870;4.702;2023-02-10T03:56:42;3.20;99.90
9564;DHT22;4820;50.870;4.702;2023-02-10T03:59:09;3.10;99.90
9564;DHT22;4820;50.870;4.702;2023-02-10T04:01:34;3.10;99.90
9564;DHT22;4820;50.870;4.702;2023-02-10T04:04:00;3.10;99.90
9564;DHT22;4820;50.870;4.702;2023-02-10T04:06:26;3.00;99.90
9564;DHT22;4820;50.870;4.702;2023-02-10T04:08:52;3.00;99.90
9564;DHT22;4820;50.870;4.702;2023-02-10T04:11:18;3.00;99.90
9564;DHT22;4820;50.870;4.702;2023-02-10T04:13:44;3.00;99.90
9564;DHT22;4820;50.870;4.702;2023-02-10T04:16:13;3.00;99.90
9564;DHT22;4820;50.870;4.702;2023-02-10T04:18:42;3.00;99.90
9564;DHT22;4820;50.870;4.702;2023-02-10T04:21:10;2.90;99.90
9564;DHT22;4820;50.870;4.702;2023-02-10T04:23:37;2.80;99.90
9564;DHT22;4820;50.870;4.702;2023-02-10T04:26:03;2.70;99.90
9564;DHT22;4820;50.870;4.702;2023-02-10T04:28:29;2.60;99.90
9564;DHT22;4820;50.870;4.702;2023-02-10T04:30:57;2.60;99.90
9564;DHT22;4820;50.870;4.702;2023-02-10T04:33:24;2.60;99.90
9564;DHT22;4820;50.870;4.702;2023-02-10T04:35:53;2.60;99.90
9564;DHT22;4820;50.870;4.702;2023-02-10T04:38:20;2.70;99.90
9564;DHT22;4820;50.870;4.702;2023-02-10T04:40:46;2.70;99.90
9564;DHT22;4820;50.870;4.702;2023-02-10T04:43:12;2.70;99.90
9564;DHT22;4820;50.870;4.702;2023-02-10T04:45:38;2.70;99.90
9564;DHT22;4820;50.870;4.702;2023-02-10T04:48:04;2.70;99.90
9564;DHT22;4820;50.870;4.702;2023-02-10T04:50:30;2.60;99.90
9564;DHT22;4820;50.870;4.702;2023-02-10T04:52:56;2.60;99.90
9564;DHT22;4820;50.870;4.702;2023-02-10T04:55:22;2.50;99.90
9564;DHT22;4820;50.870;4.702;2023-02-10T04:57:48;2.40;99.90
9564;DHT22;4820;50.870;4.702;2023-02-10T05:00:14;2.30;99.90
9564;DHT22;4820;50.870;4.702;2023-02-10T05:02:40;2.40;99.90
9564;DHT22;4820;50.870;4.702;2023-02-10T05:05:06;2.50;99.90
9564;DHT22;4820;50.870;4.702;2023-02-10T05:07:32;2.50;99.90
9564;DHT22;4820;50.870;4.702;2023-02-10T05:10:00;2.50;99.90
9564;DHT22;4820;50.870;4.702;2023-02-10T05:12:27;2.50;99.90
9564;DHT22;4820;50.870;4.702;2023-02-10T05:14:53;2.40;99.90
9564;DHT22;4820;50.870;4.702;2023-02-10T05:17:19;2.40;99.90
9564;DHT22;4820;50.870;4.702;2023-02-10T05:19:45;2.40;99.90
9564;DHT22;4820;50.870;4.702;2023-02-10T05:22:10;2.40;99.90
9564;DHT22;4820;50.870;4.702;2023-02-10T05:24:36;2.30;99.90
9564;DHT22;4820;50.870;4.702;2023-02-10T05:27:02;2.40;99.90
9564;DHT22;4820;50.870;4.702;2023-02-10T05:29:27;2.30;99.90
9564;DHT22;4820;50.870;4.702;2023-02-10T05:31:54;2.30;99.90
9564;DHT22;4820;50.870;4.702;2023-02-10T05:34:19;2.30;99.90
9564;DHT22;4820;50.870;4.702;2023-02-10T05:36:45;2.30;99.90
9564;DHT22;4820;50.870;4.702;2023-02-10T05:39:11;2.30;99.90
9564;DHT22;4820;50.870;4.702;2023-02-10T05:41:57;2.30;99.90
9564;DHT22;4820;50.870;4.702;2023-02-10T05:44:24;2.20;99.90
9564;DHT22;4820;50.870;4.702;2023-02-10T05:46:51;2.20;99.90
9564;DHT22;4820;50.870;4.702;2023-02-10T05:49:17;2.20;99.90
9564;DHT22;4820;50.870;4.702;2023-02-10T05:51:43;2.20;99.90
9564;DHT22;4820;50.870;4.702;2023-02-10T05:54:09;2.20;99.90
9564;DHT22;4820;50.870;4.702;2023-02-10T05:56:35;2.10;99.90
9564;DHT22;4820;50.870;4.702;2023-02-10T05:59:01;2.10;99.90
9564;DHT22;4820;50.870;4.702;2023-02-10T06:01:28;2.10;99.90
9564;DHT22;4820;50.870;4.702;2023-02-10T06:03:54;2.10;99.90
9564;DHT22;4820;50.870;4.702;2023-02-10T06:06:20;1.90;99.90
9564;DHT22;4820;50.870;4.702;2023-02-10T06:08:46;1.80;99.90
9564;DHT22;4820;50.870;4.702;2023-02-10T06:11:12;1.90;99.90
9564;DHT22;4820;50.870;4.702;2023-02-10T06:13:38;1.80;99.90
9564;DHT22;4820;50.870;4.702;2023-02-10T06:16:06;1.80;99.90
9564;DHT22;4820;50.870;4.702;2023-02-10T06:18:32;1.80;99.90
9564;DHT22;4820;50.870;4.702;2023-02-10T06:20:57;1.80;99.90
9564;DHT22;4820;50.870;4.702;2023-02-10T06:23:24;1.80;99.90
9564;DHT22;4820;50.870;4.702;2023-02-10T06:25:50;1.80;99.90
9564;DHT22;4820;50.870;4.702;2023-02-10T06:28:24;1.80;99.90
9564;DHT22;4820;50.870;4.702;2023-02-10T06:30:50;1.90;99.90
9564;DHT22;4820;50.870;4.702;2023-02-10T06:33:16;1.90;99.90
9564;DHT22;4820;50.870;4.702;2023-02-10T06:35:42;1.90;99.90
9564;DHT22;4820;50.870;4.702;2023-02-10T06:38:07;2.00;99.90
9564;DHT22;4820;50.870;4.702;2023-02-10T06:40:33;2.00;99.90
9564;DHT22;4820;50.870;4.702;2023-02-10T06:42:59;2.00;99.90
9564;DHT22;4820;50.870;4.702;2023-02-10T06:45:27;2.00;99.90
9564;DHT22;4820;50.870;4.702;2023-02-10T06:47:55;2.00;99.90
9564;DHT22;4820;50.870;4.702;2023-02-10T06:50:21;2.10;99.90
9564;DHT22;4820;50.870;4.702;2023-02-10T06:52:48;2.10;99.90
9564;DHT22;4820;50.870;4.702;2023-02-10T06:55:14;2.00;99.90
9564;DHT22;4820;50.870;4.702;2023-02-10T06:57:40;1.90;99.90
9564;DHT22;4820;50.870;4.702;2023-02-10T07:00:08;1.90;99.90
9564;DHT22;4820;50.870;4.702;2023-02-10T07:02:35;2.00;99.90
9564;DHT22;4820;50.870;4.702;2023-02-10T07:05:01;2.00;99.90
9564;DHT22;4820;50.870;4.702;2023-02-10T07:07:30;2.00;99.90
9564;DHT22;4820;50.870;4.702;2023-02-10T07:09:55;2.10;99.90
9564;DHT22;4820;50.870;4.702;2023-02-10T07:12:22;2.10;99.90
9564;DHT22;4820;50.870;4.702;2023-02-10T07:14:47;2.10;99.90
9564;DHT22;4820;50.870;4.702;2023-02-10T07:17:14;2.10;99.90
9564;DHT22;4820;50.870;4.702;2023-02-10T07:19:40;2.10;99.90
9564;DHT22;4820;50.870;4.702;2023-02-10T07:22:06;2.10;99.90
9564;DHT22;4820;50.870;4.702;2023-02-10T07:24:33;2.10;99.90
9564;DHT22;4820;50.870;4.702;2023-02-10T07:26:59;2.00;99.90
9564;DHT22;4820;50.870;4.702;2023-02-10T07:29:25;2.00;99.90
9564;DHT22;4820;50.870;4.702;2023-02-10T07:31:53;2.00;99.90
9564;DHT22;4820;50.870;4.702;2023-02-10T07:34:19;2.00;99.90
9564;DHT22;4820;50.870;4.702;2023-02-10T07:36:46;2.00;99.90
9564;DHT22;4820;50.870;4.702;2023-02-10T07:39:12;2.00;99.90
9564;DHT22;4820;50.870;4.702;2023-02-10T07:41:38;2.00;99.90
9564;DHT22;4820;50.870;4.702;2023-02-10T07:44:04;2.00;99.90
9564;DHT22;4820;50.870;4.702;2023-02-10T07:46:30;2.00;99.90
9564;DHT22;4820;50.870;4.702;2023-02-10T07:48:56;2.00;99.90
9564;DHT22;4820;50.870;4.702;2023-02-10T07:51:21;2.00;99.90
9564;DHT22;4820;50.870;4.702;2023-02-10T07:53:47;2.00;99.90
9564;DHT22;4820;50.870;4.702;2023-02-10T07:56:12;2.10;99.90
9564;DHT22;4820;50.870;4.702;2023-02-10T07:58:38;2.10;99.90
9564;DHT22;4820;50.870;4.702;2023-02-10T08:01:08;2.10;99.90
9564;DHT22;4820;50.870;4.702;2023-02-10T08:03:34;2.10;99.90
9564;DHT22;4820;50.870;4.702;2023-02-10T08:06:00;2.20;99.90
9564;DHT22;4820;50.870;4.702;2023-02-10T08:08:25;2.20;99.90
9564;DHT22;4820;50.870;4.702;2023-02-10T08:10:51;2.20;99.90
9564;DHT22;4820;50.870;4.702;2023-02-10T08:13:17;2.30;99.90
9564;DHT22;4820;50.870;4.702;2023-02-10T08:15:43;2.30;99.90
9564;DHT22;4820;50.870;4.702;2023-02-10T08:18:09;2.30;99.90
9564;DHT22;4820;50.870;4.702;2023-02-10T08:20:35;2.40;99.90
9564;DHT22;4820;50.870;4.702;2023-02-10T08:23:01;2.50;99.90
9564;DHT22;4820;50.870;4.702;2023-02-10T08:25:28;2.70;99.90
9564;DHT22;4820;50.870;4.702;2023-02-10T08:27:54;2.80;99.90
9564;DHT22;4820;50.870;4.702;2023-02-10T08:30:19;2.90;99.90
9564;DHT22;4820;50.870;4.702;2023-02-10T08:32:45;2.90;99.90
9564;DHT22;4820;50.870;4.702;2023-02-10T08:35:11;3.00;99.90
9564;DHT22;4820;50.870;4.702;2023-02-10T08:37:37;3.00;99.90
9564;DHT22;4820;50.870;4.702;2023-02-10T08:40:03;2.90;99.90
9564;DHT22;4820;50.870;4.702;2023-02-10T08:42:31;2.70;99.90
9564;DHT22;4820;50.870;4.702;2023-02-10T08:44:57;2.70;99.90
9564;DHT22;4820;50.870;4.702;2023-02-10T08:47:24;2.70;99.90
9564;DHT22;4820;50.870;4.702;2023-02-10T08:49:50;2.80;99.90
9564;DHT22;4820;50.870;4.702;2023-02-10T08:52:16;2.90;99.90
9564;DHT22;4820;50.870;4.702;2023-02-10T08:54:42;3.00;99.90
9564;DHT22;4820;50.870;4.702;2023-02-10T08:57:08;3.10;99.90
9564;DHT22;4820;50.870;4.702;2023-02-10T08:59:35;3.20;99.90
9564;DHT22;4820;50.870;4.702;2023-02-10T09:02:01;3.50;99.90
9564;DHT22;4820;50.870;4.702;2023-02-10T09:04:26;3.60;99.90
9564;DHT22;4820;50.870;4.702;2023-02-10T09:06:52;3.70;99.90
9564;DHT22;4820;50.870;4.702;2023-02-10T09:09:20;3.80;99.90
9564;DHT22;4820;50.870;4.702;2023-02-10T09:11:48;3.80;99.90
9564;DHT22;4820;50.870;4.702;2023-02-10T09:14:14;3.90;99.90
9564;DHT22;4820;50.870;4.702;2023-02-10T09:16:41;3.90;99.90
9564;DHT22;4820;50.870;4.702;2023-02-10T09:19:08;3.90;99.90
9564;DHT22;4820;50.870;4.702;2023-02-10T09:21:33;3.90;99.90
9564;DHT22;4820;50.870;4.702;2023-02-10T09:23:59;3.90;99.90
9564;DHT22;4820;50.870;4.702;2023-02-10T09:26:25;4.00;99.90
9564;DHT22;4820;50.870;4.702;2023-02-10T09:28:50;4.00;99.90
9564;DHT22;4820;50.870;4.702;2023-02-10T09:31:17;4.10;99.90
9564;DHT22;4820;50.870;4.702;2023-02-10T09:33:44;4.10;99.90
9564;DHT22;4820;50.870;4.702;2023-02-10T09:36:18;4.20;99.90
9564;DHT22;4820;50.870;4.702;2023-02-10T09:38:44;4.20;99.90
9564;DHT22;4820;50.870;4.702;2023-02-10T09:41:15;4.30;99.90
9564;DHT22;4820;50.870;4.702;2023-02-10T09:53:02;4.20;99.90
9564;DHT22;4820;50.870;4.702;2023-02-10T10:01:26;4.20;99.90
9564;DHT22;4820;50.870;4.702;2023-02-10T10:04:16;4.30;99.90
9564;DHT22;4820;50.870;4.702;2023-02-10T10:07:17;4.30;99.90
9564;DHT22;4820;50.870;4.702;2023-02-10T10:09:47;4.40;99.90
9564;DHT22;4820;50.870;4.702;2023-02-10T10:12:18;4.40;99.90
9564;DHT22;4820;50.870;4.702;2023-02-10T10:14:44;4.50;99.90
9564;DHT22;4820;50.870;4.702;2023-02-10T10:17:30;4.60;99.90
9564;DHT22;4820;50.870;4.702;2023-02-10T10:31:04;4.90;99.90
9564;DHT22;4820;50.870;4.702;2023-02-10T10:33:56;4.90;99.90
9564;DHT22;4820;50.870;4.702;2023-02-10T10:36:32;5.00;99.90
9564;DHT22;4820;50.870;4.702;2023-02-10T10:39:03;5.00;99.90
9564;DHT22;4820;50.870;4.702;2023-02-10T10:41:33;5.10;99.90
9564;DHT22;4820;50.870;4.702;2023-02-10T10:44:03;5.20;99.90
9564;DHT22;4820;50.870;4.702;2023-02-10T10:46:40;5.30;99.90
9564;DHT22;4820;50.870;4.702;2023-02-10T10:49:08;5.30;99.90
9564;DHT22;4820;50.870;4.702;2023-02-10T10:51:34;5.30;99.90
9564;DHT22;4820;50.870;4.702;2023-02-10T10:54:01;5.40;99.90
9564;DHT22;4820;50.870;4.702;2023-02-10T10:56:45;5.40;99.90
9564;DHT22;4820;50.870;4.702;2023-02-10T10:59:38;5.40;99.90
9564;DHT22;4820;50.870;4.702;2023-02-10T11:02:13;5.40;99.90
9564;DHT22;4820;50.870;4.702;2023-02-10T11:04:39;5.50;99.90
9564;DHT22;4820;50.870;4.702;2023-02-10T11:07:28;5.50;99.90
9564;DHT22;4820;50.870;4.702;2023-02-10T11:09:56;5.70;99.90
9564;DHT22;4820;50.870;4.702;2023-02-10T11:12:30;5.90;99.90
9564;DHT22;4820;50.870;4.702;2023-02-10T11:14:58;6.00;99.90
9564;DHT22;4820;50.870;4.702;2023-02-10T11:22:29;6.20;99.90
9564;DHT22;4820;50.870;4.702;2023-02-10T11:25:00;6.20;99.90
9564;DHT22;4820;50.870;4.702;2023-02-10T11:27:26;6.20;99.90
9564;DHT22;4820;50.870;4.702;2023-02-10T11:29:55;6.10;99.90
9564;DHT22;4820;50.870;4.702;2023-02-10T11:32:31;6.10;99.90
9564;DHT22;4820;50.870;4.702;2023-02-10T11:35:01;6.20;99.90
9564;DHT22;4820;50.870;4.702;2023-02-10T11:37:30;6.30;99.90
9564;DHT22;4820;50.870;4.702;2023-02-10T11:39:59;6.30;99.90
9564;DHT22;4820;50.870;4.702;2023-02-10T11:42:27;6.30;99.90
9564;DHT22;4820;50.870;4.702;2023-02-10T11:45:10;6.40;99.90
9564;DHT22;4820;50.870;4.702;2023-02-10T11:47:41;6.40;99.90
9564;DHT22;4820;50.870;4.702;2023-02-10T11:50:22;6.50;99.90
9564;DHT22;4820;50.870;4.702;2023-02-10T11:52:48;6.60;99.90
9564;DHT22;4820;50.870;4.702;2023-02-10T11:55:15;6.80;99.90
9564;DHT22;4820;50.870;4.702;2023-02-10T11:57:57;7.00;99.90
9564;DHT22;4820;50.870;4.702;2023-02-10T12:01:21;7.10;99.90
9564;DHT22;4820;50.870;4.702;2023-02-10T12:06:47;7.10;99.90
9564;DHT22;4820;50.870;4.702;2023-02-10T12:17:37;7.20;99.90
9564;DHT22;4820;50.870;4.702;2023-02-10T12:20:29;7.30;99.90
9564;DHT22;4820;50.870;4.702;2023-02-10T12:26:02;7.40;99.90
9564;DHT22;4820;50.870;4.702;2023-02-10T12:42:49;7.90;99.90
9564;DHT22;4820;50.870;4.702;2023-02-10T12:53:30;8.00;99.90
9564;DHT22;4820;50.870;4.702;2023-02-10T12:55:59;8.00;99.90
9564;DHT22;4820;50.870;4.702;2023-02-10T12:58:34;8.10;99.90
9564;DHT22;4820;50.870;4.702;2023-02-10T13:01:35;8.10;99.90
9564;DHT22;4820;50.870;4.702;2023-02-10T13:06:46;8.10;99.90
9564;DHT22;4820;50.870;4.702;2023-02-10T13:09:37;8.20;99.90
9564;DHT22;4820;50.870;4.702;2023-02-10T13:14:31;8.50;99.90
9564;DHT22;4820;50.870;4.702;2023-02-10T13:16:59;8.50;99.90
9564;DHT22;4820;50.870;4.702;2023-02-10T13:34:00;8.10;99.90
9564;DHT22;4820;50.870;4.702;2023-02-10T13:36:28;8.10;99.90
9564;DHT22;4820;50.870;4.702;2023-02-10T13:39:25;8.10;99.90
9564;DHT22;4820;50.870;4.702;2023-02-10T13:42:28;8.10;99.90
9564;DHT22;4820;50.870;4.702;2023-02-10T13:45:02;8.20;99.90
9564;DHT22;4820;50.870;4.702;2023-02-10T13:47:40;8.10;99.90
9564;DHT22;4820;50.870;4.702;2023-02-10T13:52:53;8.10;99.90
9564;DHT22;4820;50.870;4.702;2023-02-10T14:00:51;8.00;99.90
9564;DHT22;4820;50.870;4.702;2023-02-10T14:03:21;8.00;99.90
9564;DHT22;4820;50.870;4.702;2023-02-10T14:06:06;8.00;99.90
9564;DHT22;4820;50.870;4.702;2023-02-10T14:13:38;7.90;99.90
9564;DHT22;4820;50.870;4.702;2023-02-10T14:21:56;7.80;99.90
9564;DHT22;4820;50.870;4.702;2023-02-10T14:24:26;7.80;99.90
9564;DHT22;4820;50.870;4.702;2023-02-10T14:26:53;7.80;99.90
9564;DHT22;4820;50.870;4.702;2023-02-10T14:29:23;7.80;99.90
9564;DHT22;4820;50.870;4.702;2023-02-10T14:32:00;7.70;99.90
9564;DHT22;4820;50.870;4.702;2023-02-10T14:34:34;7.70;99.90
9564;DHT22;4820;50.870;4.702;2023-02-10T14:37:19;7.70;99.90
9564;DHT22;4820;50.870;4.702;2023-02-10T14:40:00;7.70;99.90
9564;DHT22;4820;50.870;4.702;2023-02-10T14:42:31;7.70;99.90
9564;DHT22;4820;50.870;4.702;2023-02-10T14:44:59;7.70;99.90
9564;DHT22;4820;50.870;4.702;2023-02-10T14:47:37;7.80;99.90
9564;DHT22;4820;50.870;4.702;2023-02-10T14:50:04;7.80;99.90
9564;DHT22;4820;50.870;4.702;2023-02-10T14:52:33;7.70;99.90
9564;DHT22;4820;50.870;4.702;2023-02-10T14:54:59;7.70;99.90
9564;DHT22;4820;50.870;4.702;2023-02-10T14:57:26;7.60;99.90
9564;DHT22;4820;50.870;4.702;2023-02-10T15:00:02;7.50;99.90
9564;DHT22;4820;50.870;4.702;2023-02-10T15:02:30;7.60;99.90
9564;DHT22;4820;50.870;4.702;2023-02-10T15:04:59;7.70;99.90
9564;DHT22;4820;50.870;4.702;2023-02-10T15:07:32;7.60;99.90
9564;DHT22;4820;50.870;4.702;2023-02-10T15:10:27;7.60;99.90
9564;DHT22;4820;50.870;4.702;2023-02-10T15:12:51;7.70;99.90
9564;DHT22;4820;50.870;4.702;2023-02-10T15:18:02;7.60;99.90
9564;DHT22;4820;50.870;4.702;2023-02-10T15:20:32;7.70;99.90
9564;DHT22;4820;50.870;4.702;2023-02-10T15:27:57;7.60;99.90
9564;DHT22;4820;50.870;4.702;2023-02-10T15:30:26;7.60;99.90
9564;DHT22;4820;50.870;4.702;2023-02-10T15:32:55;7.50;99.90
9564;DHT22;4820;50.870;4.702;2023-02-10T15:35:21;7.50;99.90
9564;DHT22;4820;50.870;4.702;2023-02-10T15:37:59;7.50;99.90
9564;DHT22;4820;50.870;4.702;2023-02-10T15:40:29;7.50;99.90
9564;DHT22;4820;50.870;4.702;2023-02-10T15:45:23;7.40;99.90
9564;DHT22;4820;50.870;4.702;2023-02-10T15:48:08;7.40;99.90
9564;DHT22;4820;50.870;4.702;2023-02-10T15:50:35;7.40;99.90
9564;DHT22;4820;50.870;4.702;2023-02-10T15:53:03;7.40;99.90
9564;DHT22;4820;50.870;4.702;2023-02-10T15:55:36;7.50;99.90
9564;DHT22;4820;50.870;4.702;2023-02-10T15:58:03;7.40;99.90
9564;DHT22;4820;50.870;4.702;2023-02-10T16:00:31;7.40;99.90
9564;DHT22;4820;50.870;4.702;2023-02-10T16:02:59;7.40;99.90
9564;DHT22;4820;50.870;4.702;2023-02-10T16:05:27;7.40;99.90
9564;DHT22;4820;50.870;4.702;2023-02-10T16:07:55;7.40;99.90
9564;DHT22;4820;50.870;4.702;2023-02-10T16:10:25;7.40;99.90
9564;DHT22;4820;50.870;4.702;2023-02-10T16:12:51;7.40;99.90
9564;DHT22;4820;50.870;4.702;2023-02-10T16:15:21;7.40;99.90
9564;DHT22;4820;50.870;4.702;2023-02-10T16:17:51;7.40;99.90
9564;DHT22;4820;50.870;4.702;2023-02-10T16:20:20;7.20;99.90
9564;DHT22;4820;50.870;4.702;2023-02-10T16:22:47;7.20;99.90
9564;DHT22;4820;50.870;4.702;2023-02-10T16:25:14;7.20;99.90
9564;DHT22;4820;50.870;4.702;2023-02-10T16:27:41;7.10;99.90
9564;DHT22;4820;50.870;4.702;2023-02-10T16:30:13;7.10;99.90
9564;DHT22;4820;50.870;4.702;2023-02-10T16:32:39;7.10;99.90
9564;DHT22;4820;50.870;4.702;2023-02-10T16:35:05;7.00;99.90
9564;DHT22;4820;50.870;4.702;2023-02-10T16:37:31;7.00;99.90
9564;DHT22;4820;50.870;4.702;2023-02-10T16:39:56;7.00;99.90
9564;DHT22;4820;50.870;4.702;2023-02-10T16:42:23;7.00;99.90
9564;DHT22;4820;50.870;4.702;2023-02-10T16:44:49;7.00;99.90
9564;DHT22;4820;50.870;4.702;2023-02-10T16:47:20;7.00;99.90
9564;DHT22;4820;50.870;4.702;2023-02-10T16:49:47;7.10;99.90
9564;DHT22;4820;50.870;4.702;2023-02-10T16:52:13;7.10;99.90
9564;DHT22;4820;50.870;4.702;2023-02-10T16:54:40;7.10;99.90
9564;DHT22;4820;50.870;4.702;2023-02-10T16:57:06;7.10;99.90
9564;DHT22;4820;50.870;4.702;2023-02-10T16:59:34;7.10;99.90
9564;DHT22;4820;50.870;4.702;2023-02-10T17:01:59;7.00;99.90
9564;DHT22;4820;50.870;4.702;2023-02-10T17:04:25;7.00;99.90
9564;DHT22;4820;50.870;4.702;2023-02-10T17:06:51;6.90;99.90
9564;DHT22;4820;50.870;4.702;2023-02-10T17:09:19;6.90;99.90
9564;DHT22;4820;50.870;4.702;2023-02-10T17:11:45;6.90;99.90
9564;DHT22;4820;50.870;4.702;2023-02-10T17:14:12;7.00;99.90
9564;DHT22;4820;50.870;4.702;2023-02-10T17:16:42;7.00;99.90
9564;DHT22;4820;50.870;4.702;2023-02-10T17:19:10;7.00;99.90
9564;DHT22;4820;50.870;4.702;2023-02-10T17:21:36;7.10;99.90
9564;DHT22;4820;50.870;4.702;2023-02-10T17:24:02;7.10;99.90
9564;DHT22;4820;50.870;4.702;2023-02-10T17:26:27;7.10;99.90
9564;DHT22;4820;50.870;4.702;2023-02-10T17:28:54;7.10;99.90
9564;DHT22;4820;50.870;4.702;2023-02-10T17:31:21;7.00;99.90
9564;DHT22;4820;50.870;4.702;2023-02-10T17:33:48;7.00;99.90
9564;DHT22;4820;50.870;4.702;2023-02-10T17:36:22;7.00;99.90
9564;DHT22;4820;50.870;4.702;2023-02-10T17:38:50;7.00;99.90
9564;DHT22;4820;50.870;4.702;2023-02-10T17:41:19;6.90;99.90
9564;DHT22;4820;50.870;4.702;2023-02-10T17:43:47;7.00;99.90
9564;DHT22;4820;50.870;4.702;2023-02-10T17:46:14;6.90;99.90
9564;DHT22;4820;50.870;4.702;2023-02-10T17:48:40;6.90;99.90
9564;DHT22;4820;50.870;4.702;2023-02-10T17:51:08;6.90;99.90
9564;DHT22;4820;50.870;4.702;2023-02-10T17:53:35;6.90;99.90
9564;DHT22;4820;50.870;4.702;2023-02-10T17:56:01;6.90;99.90
9564;DHT22;4820;50.870;4.702;2023-02-10T17:58:30;6.90;99.90
9564;DHT22;4820;50.870;4.702;2023-02-10T18:00:56;6.90;99.90
9564;DHT22;4820;50.870;4.702;2023-02-10T18:03:23;6.90;99.90
9564;DHT22;4820;50.870;4.702;2023-02-10T18:05:51;7.00;99.90
9564;DHT22;4820;50.870;4.702;2023-02-10T18:08:20;7.00;99.90
9564;DHT22;4820;50.870;4.702;2023-02-10T18:10:47;7.00;99.90
9564;DHT22;4820;50.870;4.702;2023-02-10T18:13:15;6.90;99.90
9564;DHT22;4820;50.870;4.702;2023-02-10T18:15:41;6.90;99.90
9564;DHT22;4820;50.870;4.702;2023-02-10T18:18:07;6.90;99.90
9564;DHT22;4820;50.870;4.702;2023-02-10T18:20:33;6.80;99.90
9564;DHT22;4820;50.870;4.702;2023-02-10T18:22:59;6.80;99.90
9564;DHT22;4820;50.870;4.702;2023-02-10T18:25:25;6.80;99.90
9564;DHT22;4820;50.870;4.702;2023-02-10T18:27:51;6.80;99.90
9564;DHT22;4820;50.870;4.702;2023-02-10T18:30:17;6.90;99.90
9564;DHT22;4820;50.870;4.702;2023-02-10T18:32:43;6.90;99.90
9564;DHT22;4820;50.870;4.702;2023-02-10T18:35:12;6.90;99.90
9564;DHT22;4820;50.870;4.702;2023-02-10T18:37:40;6.90;99.90
9564;DHT22;4820;50.870;4.702;2023-02-10T18:40:07;7.00;99.90
9564;DHT22;4820;50.870;4.702;2023-02-10T18:42:33;7.00;99.90
9564;DHT22;4820;50.870;4.702;2023-02-10T18:44:59;7.00;99.90
9564;DHT22;4820;50.870;4.702;2023-02-10T18:47:24;7.10;99.90